Floyd, New York
Current Conditions -  °F | °C
As of 6:53 AM on Monday 24 Nov 2014 (Local Time) from KRME Reporting Station
Broken Clouds Broken Clouds  
Wind Chill: 45°   Ceiling: 3300
Heat Index: 48°   Visibility: 10mi
Dew Point: 46°   Wind: 7mph
Humidity: 93%   Direction: 140°SE
Pressure: 29.53"   Gusts: NA
Location:  43.2466°N, 75.4624°W
Report Text: KRME 241153Z AUTO 14006KT 10SM BKN033 09/08 A2953 RMK AO2 RAE15 SLP001 P0000 60018 70018 T00890078 10094 20061 56029
Loading
Personal Weather Stations






























Interactive Weather Map New forecast layout! Learn more

10-Day Weather Forecast

Advertisements
Track Severe Weather on mobile